Time;durP1;ratioP1;P1;durP2;ratioP2;P2;SDS_P1;SDS_P2;PMS_P1;PMS_P2;Temp;Humidity;BMP_temperature;BMP_pressure;BME280_temperature;BME280_humidity;BME280_pressure;Samples;Min_cycle;Max_cycle;Signal;HPM_P1;HPM_P2
2021/06/06 00:01:17;;;;;;;58.23;43.23;;;;;;;17.33;95.26;100927.44;5079428;28;20198;-68
2021/06/06 00:03:46;;;;;;;57.17;43.37;;;;;;;17.32;95.40;100925.69;5075977;28;20224;-69
2021/06/06 00:06:14;;;;;;;60.23;43.17;;;;;;;17.38;95.33;100920.19;5079013;28;20224;-68
2021/06/06 00:08:41;;;;;;;61.83;43.93;;;;;;;17.32;95.13;100913.34;5077978;28;20217;-67
2021/06/06 00:11:10;;;;;;;61.30;43.33;;;;;;;17.29;95.06;100913.50;5081954;28;20833;-68
2021/06/06 00:13:39;;;;;;;64.37;44.47;;;;;;;17.33;94.94;100909.81;5081481;28;22029;-68
2021/06/06 00:16:05;;;;;;;60.07;44.73;;;;;;;17.35;95.04;100917.69;5081732;28;20215;-68
2021/06/06 00:18:32;;;;;;;61.27;43.33;;;;;;;17.27;94.88;100920.59;5081829;28;20210;-68
2021/06/06 00:20:58;;;;;;;66.57;45.03;;;;;;;17.23;95.53;100916.38;5082402;28;20215;-68
2021/06/06 00:23:24;;;;;;;68.50;45.30;;;;;;;17.21;95.55;100919.06;5086184;28;20224;-68
2021/06/06 00:25:50;;;;;;;74.50;48.03;;;;;;;17.16;95.62;100921.00;5085585;28;20249;-68
2021/06/06 00:28:16;;;;;;;77.70;48.77;;;;;;;17.17;95.83;100919.25;5085762;28;20658;-69
2021/06/06 00:30:42;;;;;;;76.07;49.27;;;;;;;17.15;95.72;100926.38;5086192;28;20197;-68
2021/06/06 00:33:09;;;;;;;79.60;48.23;;;;;;;17.17;95.55;100932.44;5085350;28;20726;-68
2021/06/06 00:35:36;;;;;;;71.77;49.30;;;;;;;17.17;95.65;100927.16;5086420;28;20228;-68
2021/06/06 00:38:03;;;;;;;79.30;49.37;;;;;;;17.12;95.90;100929.97;5086013;28;20302;-68
2021/06/06 00:40:31;;;;;;;80.53;49.93;;;;;;;17.11;96.22;100922.13;5085711;28;20699;-68
2021/06/06 00:42:58;;;;;;;81.10;49.37;;;;;;;17.10;96.13;100923.03;5085307;28;20201;-68
2021/06/06 00:45:29;;;;;;;80.53;50.83;;;;;;;17.14;96.16;100930.75;5085780;28;20234;-68
2021/06/06 00:47:55;;;;;;;77.60;49.10;;;;;;;17.14;96.07;100924.63;5086650;28;20205;-68
2021/06/06 00:50:25;;;;;;;81.47;49.37;;;;;;;17.15;96.29;100929.00;5085739;28;20211;-68
2021/06/06 00:52:55;;;;;;;77.23;49.70;;;;;;;17.13;96.44;100930.84;5085988;28;20218;-68
2021/06/06 00:55:22;;;;;;;86.63;53.00;;;;;;;17.12;96.35;100931.75;5085699;28;20231;-68
2021/06/06 00:57:49;;;;;;;89.00;52.27;;;;;;;17.16;95.97;100931.56;5085218;28;20261;-68
2021/06/06 01:00:21;;;;;;;82.90;51.00;;;;;;;17.12;95.86;100935.25;5085725;28;20236;-68
2021/06/06 01:02:49;;;;;;;91.67;51.63;;;;;;;17.02;96.39;100932.09;5085356;28;20268;-68
2021/06/06 01:05:25;;;;;;;84.57;52.70;;;;;;;17.09;96.33;100940.66;5085791;28;20641;-68
2021/06/06 01:07:52;;;;;;;90.77;52.57;;;;;;;17.05;96.22;100937.25;5085501;28;20227;-69
2021/06/06 01:10:18;;;;;;;90.50;52.83;;;;;;;17.03;96.39;100933.81;5085557;28;20209;-68
2021/06/06 01:12:49;;;;;;;87.57;51.83;;;;;;;17.05;96.37;100928.50;5085223;28;20221;-67
2021/06/06 01:15:20;;;;;;;91.13;52.87;;;;;;;17.03;96.36;100930.34;5085105;28;20475;-67
2021/06/06 01:17:52;;;;;;;99.87;54.03;;;;;;;17.05;96.30;100928.50;5085707;28;20216;-68
2021/06/06 01:20:29;;;;;;;99.10;53.37;;;;;;;16.98;96.75;100927.84;5085301;28;20205;-68
2021/06/06 01:23:05;;;;;;;101.97;55.30;;;;;;;16.84;97.14;100928.38;5083137;28;20209;-68
2021/06/06 01:25:36;;;;;;;113.10;56.53;;;;;;;16.77;97.36;100929.50;5085009;28;20210;-68
2021/06/06 01:28:06;;;;;;;116.93;56.93;;;;;;;16.79;97.61;100926.81;5087084;28;20214;-68
2021/06/06 01:30:37;;;;;;;118.93;57.83;;;;;;;16.74;98.07;100931.38;5092092;28;20262;-68
2021/06/06 01:33:08;;;;;;;111.50;56.07;;;;;;;16.81;97.98;100923.22;5090488;28;20202;-68
2021/06/06 01:35:39;;;;;;;127.17;58.77;;;;;;;16.72;98.16;100927.94;5093422;28;20620;-68
2021/06/06 01:38:10;;;;;;;123.50;59.03;;;;;;;16.71;98.20;100931.47;5090641;28;20211;-69
2021/06/06 01:40:40;;;;;;;107.80;55.80;;;;;;;16.77;98.24;100932.13;5085694;28;20205;-68
2021/06/06 01:43:11;;;;;;;110.47;55.30;;;;;;;16.85;98.12;100930.09;5084123;28;20211;-68
2021/06/06 01:45:42;;;;;;;127.77;59.27;;;;;;;16.67;98.48;100933.41;5084937;28;20205;-68
2021/06/06 01:48:11;;;;;;;124.80;59.17;;;;;;;16.56;98.87;100936.41;5085159;28;20387;-68
2021/06/06 01:50:41;;;;;;;137.27;61.70;;;;;;;16.57;99.24;100934.59;5084968;28;20457;-67
2021/06/06 01:53:08;;;;;;;133.13;59.63;;;;;;;16.57;99.28;100924.97;5084469;28;20327;-68
2021/06/06 01:55:42;;;;;;;144.00;62.90;;;;;;;16.49;99.71;100929.66;5084330;28;20252;-68
2021/06/06 01:58:08;;;;;;;132.30;60.47;;;;;;;16.58;99.74;100929.28;5084064;28;20655;-68
2021/06/06 02:00:37;;;;;;;140.17;62.97;;;;;;;16.59;99.84;100930.16;5084579;28;20254;-68
2021/06/06 02:03:03;;;;;;;132.17;58.80;;;;;;;16.60;99.78;100937.16;5083997;28;20211;-68
2021/06/06 02:05:30;;;;;;;139.70;60.83;;;;;;;16.54;99.77;100935.59;5085064;28;20210;-68
2021/06/06 02:07:57;;;;;;;133.37;59.70;;;;;;;16.52;100.00;100929.50;5084016;28;20668;-68
2021/06/06 02:10:27;;;;;;;127.93;57.23;;;;;;;16.44;100.00;100934.19;5084700;28;20554;-68
2021/06/06 02:13:03;;;;;;;145.87;63.37;;;;;;;16.48;100.00;100936.66;5083837;28;20204;-68
2021/06/06 02:15:31;;;;;;;140.90;60.80;;;;;;;16.41;100.00;100937.81;5084285;28;20641;-68
2021/06/06 02:18:00;;;;;;;148.57;61.50;;;;;;;16.41;100.00;100932.53;5084449;28;20205;-68
2021/06/06 02:20:31;;;;;;;142.53;61.60;;;;;;;16.40;100.00;100937.88;5083881;28;20208;-68
2021/06/06 02:22:58;;;;;;;151.83;63.23;;;;;;;16.45;100.00;100935.91;5084118;28;20204;-68
2021/06/06 02:25:25;;;;;;;136.30;59.87;;;;;;;16.52;100.00;100931.31;5083812;28;20582;-68
2021/06/06 02:28:05;;;;;;;119.90;57.47;;;;;;;16.55;100.00;100932.06;5083726;28;20414;-68
2021/06/06 02:30:38;;;;;;;115.93;53.87;;;;;;;16.48;100.00;100935.81;5083907;28;20208;-68
2021/06/06 02:33:10;;;;;;;131.83;59.33;;;;;;;16.43;100.00;100932.47;5083485;28;20205;-67
2021/06/06 02:35:39;;;;;;;135.53;60.37;;;;;;;16.43;100.00;100924.56;5084332;28;20274;-68
2021/06/06 02:38:08;;;;;;;143.73;60.00;;;;;;;16.37;100.00;100935.31;5084198;28;20226;-68
2021/06/06 02:40:38;;;;;;;125.63;57.50;;;;;;;16.46;100.00;100933.22;5084549;28;20258;-68
2021/06/06 02:43:09;;;;;;;139.23;61.07;;;;;;;16.39;100.00;100931.75;5083389;28;20201;-68
2021/06/06 02:45:35;;;;;;;143.40;59.47;;;;;;;16.36;100.00;100930.97;5083738;28;20228;-68
2021/06/06 02:48:05;;;;;;;136.77;60.90;;;;;;;16.36;100.00;100934.47;5083398;28;20208;-68
2021/06/06 02:50:35;;;;;;;129.47;56.40;;;;;;;16.40;100.00;100933.44;5083499;28;20265;-68
2021/06/06 02:53:05;;;;;;;136.53;56.90;;;;;;;16.41;100.00;100940.44;5083732;28;20208;-68
2021/06/06 02:55:34;;;;;;;128.50;56.07;;;;;;;16.41;100.00;100942.19;5083794;28;20231;-68
2021/06/06 02:58:04;;;;;;;124.83;55.63;;;;;;;16.28;100.00;100932.09;5083084;28;20204;-68
2021/06/06 03:00:35;;;;;;;135.07;59.93;;;;;;;16.36;100.00;100942.38;5083339;28;20204;-68
2021/06/06 03:03:07;;;;;;;121.20;54.30;;;;;;;16.26;100.00;100940.97;5083390;28;20209;-68
2021/06/06 03:05:33;;;;;;;127.07;55.57;;;;;;;16.30;100.00;100937.31;5084084;28;20685;-67
2021/06/06 03:08:03;;;;;;;122.47;53.97;;;;;;;16.24;100.00;100935.75;5083386;28;20200;-68
2021/06/06 03:10:32;;;;;;;130.07;54.87;;;;;;;16.22;100.00;100934.09;5083309;28;20681;-68
2021/06/06 03:13:04;;;;;;;140.10;58.37;;;;;;;16.14;100.00;100936.13;5082777;28;20215;-67
2021/06/06 03:15:34;;;;;;;150.23;61.03;;;;;;;16.15;100.00;100938.69;5083016;28;20225;-68
2021/06/06 03:18:03;;;;;;;144.30;63.00;;;;;;;16.16;100.00;100940.44;5083344;28;20204;-68
2021/06/06 03:20:32;;;;;;;132.10;59.63;;;;;;;16.19;100.00;100931.56;5083004;28;20203;-68
2021/06/06 03:23:00;;;;;;;120.60;57.17;;;;;;;16.26;100.00;100941.84;5082563;28;20687;-68
2021/06/06 03:25:37;;;;;;;112.53;57.57;;;;;;;16.29;100.00;100940.84;5082774;28;20215;-68
2021/06/06 03:28:04;;;;;;;102.33;53.40;;;;;;;16.32;100.00;100945.19;5082394;28;20200;-68
2021/06/06 03:30:36;;;;;;;98.37;52.47;;;;;;;16.35;100.00;100945.94;5083052;28;20215;-67
2021/06/06 03:33:06;;;;;;;97.93;51.97;;;;;;;16.38;99.78;100951.09;5082234;28;20242;-68
2021/06/06 03:35:32;;;;;;;94.37;52.97;;;;;;;16.35;99.52;100945.94;5082787;28;20253;-68
2021/06/06 03:37:58;;;;;;;96.33;54.60;;;;;;;16.36;99.28;100947.66;5083192;28;20200;-68
2021/06/06 03:40:27;;;;;;;96.77;52.10;;;;;;;16.33;99.19;100944.25;5083101;28;20205;-67
2021/06/06 03:42:53;;;;;;;95.60;52.30;;;;;;;16.29;99.25;100943.50;5082640;28;20227;-68
2021/06/06 03:45:19;;;;;;;108.10;55.60;;;;;;;16.29;99.50;100943.50;5082908;28;20658;-67
2021/06/06 03:47:47;;;;;;;107.90;57.40;;;;;;;16.24;99.70;100942.81;5082835;28;20253;-68
2021/06/06 03:50:16;;;;;;;101.37;54.37;;;;;;;16.32;99.46;100945.19;5082804;28;20204;-68
2021/06/06 03:52:43;;;;;;;97.67;53.43;;;;;;;16.23;99.54;100943.69;5082841;28;20209;-68
2021/06/06 03:55:12;;;;;;;94.27;52.93;;;;;;;16.25;99.41;100947.16;5082542;28;20235;-67
2021/06/06 03:57:38;;;;;;;100.77;56.27;;;;;;;16.28;99.49;100957.59;5084828;28;20215;-68
2021/06/06 04:00:07;;;;;;;93.67;54.47;;;;;;;16.35;99.19;100950.31;5086858;28;20208;-68
2021/06/06 04:02:33;;;;;;;101.60;56.90;;;;;;;16.34;98.80;100952.09;5086811;28;20216;-68
2021/06/06 04:05:00;;;;;;;109.27;56.70;;;;;;;16.26;99.04;100956.78;5087069;28;20317;-68
2021/06/06 04:07:26;;;;;;;111.37;58.57;;;;;;;16.22;99.11;100953.38;5086209;28;20237;-67
2021/06/06 04:09:52;;;;;;;102.43;56.67;;;;;;;16.23;99.15;100949.84;5087304;28;20208;-68
2021/06/06 04:12:18;;;;;;;98.70;53.53;;;;;;;16.22;98.94;100961.28;5086344;28;20314;-68
2021/06/06 04:14:43;;;;;;;109.20;55.93;;;;;;;16.19;99.00;100960.53;5086485;28;20263;-68
2021/06/06 04:17:09;;;;;;;98.00;53.73;;;;;;;16.23;99.14;100957.75;5086984;28;20272;-68
2021/06/06 04:19:36;;;;;;;98.97;55.03;;;;;;;16.26;99.06;100956.78;5086870;28;20545;-67
2021/06/06 04:22:03;;;;;;;105.63;54.70;;;;;;;16.19;99.21;100957.91;5086340;28;20253;-67
2021/06/06 04:24:29;;;;;;;105.17;56.20;;;;;;;16.24;98.75;100951.56;5086426;28;20224;-68
2021/06/06 04:26:55;;;;;;;110.97;55.97;;;;;;;16.21;98.82;100963.97;5086169;28;20203;-67
2021/06/06 04:29:21;;;;;;;96.60;53.50;;;;;;;16.28;98.40;100957.59;5086456;28;20207;-68
2021/06/06 04:31:47;;;;;;;94.50;52.60;;;;;;;16.33;97.85;100957.41;5085874;28;20688;-68
2021/06/06 04:34:13;;;;;;;98.67;52.20;;;;;;;16.35;97.75;100960.88;5086122;28;20712;-68
2021/06/06 04:36:38;;;;;;;82.67;50.83;;;;;;;16.39;97.29;100962.47;5085985;28;20207;-68
2021/06/06 04:39:06;;;;;;;79.90;48.57;;;;;;;16.38;96.88;100958.13;5086216;28;20231;-68
2021/06/06 04:41:32;;;;;;;77.70;49.87;;;;;;;16.28;96.97;100962.84;5086745;28;20224;-68
2021/06/06 04:43:57;;;;;;;88.47;51.53;;;;;;;16.27;97.09;100961.13;5084837;28;20279;-68
2021/06/06 04:46:23;;;;;;;82.33;51.27;;;;;;;16.22;97.20;100952.53;5086374;28;20362;-68
2021/06/06 04:48:49;;;;;;;91.57;54.00;;;;;;;16.24;97.23;100959.47;5085959;28;20625;-67
2021/06/06 04:51:19;;;;;;;88.77;52.20;;;;;;;16.27;97.09;100962.00;5085883;28;20234;-68
2021/06/06 04:53:45;;;;;;;86.27;52.40;;;;;;;16.35;97.12;100964.38;5085693;28;20649;-68
2021/06/06 04:56:14;;;;;;;87.97;53.33;;;;;;;16.35;97.19;100967.00;5085608;28;20206;-68
2021/06/06 04:58:40;;;;;;;88.27;51.07;;;;;;;16.36;96.83;100967.88;5085589;28;20708;-68
2021/06/06 05:01:07;;;;;;;88.07;53.53;;;;;;;16.31;96.66;100962.75;5085738;28;20237;-67
2021/06/06 05:03:33;;;;;;;84.03;52.33;;;;;;;16.33;96.84;100966.19;5084963;28;20758;-68
2021/06/06 05:05:59;;;;;;;89.17;54.60;;;;;;;16.33;96.92;100967.97;5086017;28;20200;-68
2021/06/06 05:08:25;;;;;;;92.07;54.73;;;;;;;16.31;96.98;100960.09;5085330;28;20207;-68
2021/06/06 05:10:52;;;;;;;90.43;54.87;;;;;;;16.33;96.82;100967.97;5085907;28;20211;-68
2021/06/06 05:13:20;;;;;;;91.23;55.77;;;;;;;16.35;96.81;100968.75;5085201;28;20221;-68
2021/06/06 05:15:46;;;;;;;86.43;54.10;;;;;;;16.38;96.62;100966.03;5086002;28;20235;-68
2021/06/06 05:18:13;;;;;;;96.03;56.23;;;;;;;16.39;96.76;100965.09;5085183;28;20567;-68
2021/06/06 05:20:41;;;;;;;93.97;54.57;;;;;;;16.40;96.72;100964.22;5085644;28;20204;-68
2021/06/06 05:23:08;;;;;;;86.80;52.30;;;;;;;16.44;96.31;100965.81;5085327;28;20292;-68
2021/06/06 05:25:36;;;;;;;90.27;54.57;;;;;;;16.41;96.12;100973.81;5085258;28;20208;-67
2021/06/06 05:28:04;;;;;;;88.50;52.73;;;;;;;16.33;96.35;100970.59;5084692;28;20705;-68
2021/06/06 05:30:35;;;;;;;89.83;53.23;;;;;;;16.28;96.52;100978.66;5085268;28;20211;-67
2021/06/06 05:33:01;;;;;;;93.00;54.47;;;;;;;16.33;96.32;100978.50;5084416;28;20196;-67
2021/06/06 05:35:30;;;;;;;89.13;53.57;;;;;;;16.35;96.51;100976.66;5085171;28;20231;-68
2021/06/06 05:37:57;;;;;;;87.40;52.73;;;;;;;16.27;96.62;100990.09;5085319;28;20218;-69
2021/06/06 05:40:24;;;;;;;92.60;52.70;;;;;;;16.17;97.18;100992.19;5085241;28;20213;-68
2021/06/06 05:42:50;;;;;;;100.83;53.37;;;;;;;16.12;97.23;100982.75;5084687;28;20690;-68
2021/06/06 05:45:18;;;;;;;102.60;56.20;;;;;;;16.10;97.39;100985.41;5085147;28;20208;-68
2021/06/06 05:47:45;;;;;;;99.47;54.17;;;;;;;16.08;97.55;100984.59;5085062;28;20215;-68
2021/06/06 05:50:14;;;;;;;94.90;52.67;;;;;;;16.12;97.71;100982.75;5084581;28;20207;-68
2021/06/06 05:52:40;;;;;;;90.77;52.60;;;;;;;16.04;97.71;100986.47;5084859;28;20208;-68
2021/06/06 05:55:07;;;;;;;96.77;53.03;;;;;;;15.98;98.04;100993.72;5084606;28;20766;-69
2021/06/06 05:57:34;;;;;;;95.70;56.87;;;;;;;16.02;97.97;101003.25;5084303;28;20294;-68
2021/06/06 05:59:59;;;;;;;93.53;53.90;;;;;;;15.97;98.07;100995.47;5084024;28;20670;-68
2021/06/06 06:02:25;;;;;;;111.40;57.10;;;;;;;15.99;98.18;100988.38;5084577;28;20219;-68
2021/06/06 06:04:52;;;;;;;101.87;56.83;;;;;;;16.05;98.08;100996.13;5084447;28;21069;-68
2021/06/06 06:07:18;;;;;;;95.23;55.20;;;;;;;16.04;97.82;100999.63;5084408;28;20268;-68
2021/06/06 06:09:44;;;;;;;101.33;55.30;;;;;;;16.05;97.76;100998.75;5084635;28;20208;-68
2021/06/06 06:12:10;;;;;;;93.83;54.20;;;;;;;15.93;97.83;101001.75;5083625;28;20410;-68
2021/06/06 06:14:36;;;;;;;104.67;58.10;;;;;;;15.89;97.98;101003.63;5083980;28;20998;-68
2021/06/06 06:17:02;;;;;;;106.27;55.63;;;;;;;15.75;98.26;101005.84;5084810;28;20262;-68
2021/06/06 06:19:28;;;;;;;121.67;62.13;;;;;;;15.69;99.05;101011.25;5083745;28;20207;-69
2021/06/06 06:21:55;;;;;;;117.17;60.70;;;;;;;15.63;99.39;101014.09;5084669;28;20211;-68
2021/06/06 06:24:22;;;;;;;119.13;59.17;;;;;;;15.53;99.97;101010.88;5084067;28;20230;-68
2021/06/06 06:26:48;;;;;;;112.70;58.20;;;;;;;15.45;100.00;101011.09;5083933;28;20207;-69
2021/06/06 06:29:15;;;;;;;111.40;56.80;;;;;;;15.55;100.00;101010.81;5083737;28;20287;-69
2021/06/06 06:31:41;;;;;;;107.50;56.13;;;;;;;15.56;100.00;101010.78;5083907;28;20704;-69
2021/06/06 06:34:06;;;;;;;93.27;54.30;;;;;;;15.60;99.94;101014.16;5083836;28;20225;-69
2021/06/06 06:36:33;;;;;;;89.23;51.07;;;;;;;15.55;99.95;101010.81;5083735;28;20204;-69
2021/06/06 06:39:00;;;;;;;88.23;50.73;;;;;;;15.61;99.77;101018.53;5083581;28;20270;-69
2021/06/06 06:41:29;;;;;;;84.43;50.17;;;;;;;15.47;99.93;101016.31;5084290;28;20211;-68
2021/06/06 06:43:56;;;;;;;99.20;49.97;;;;;;;15.34;100.00;101012.31;5082207;28;20255;-68
2021/06/06 06:46:22;;;;;;;109.87;54.40;;;;;;;15.33;100.00;101010.59;5083405;28;20203;-68
2021/06/06 06:48:49;;;;;;;99.10;52.17;;;;;;;15.20;100.00;101005.72;5082617;28;20213;-68
2021/06/06 06:51:14;;;;;;;96.63;51.77;;;;;;;15.16;100.00;101006.69;5082980;28;20207;-67
2021/06/06 06:53:41;;;;;;;115.50;54.50;;;;;;;15.22;100.00;101005.66;5082848;28;20275;-67
2021/06/06 06:56:08;;;;;;;100.00;51.87;;;;;;;15.26;100.00;101016.06;5082189;28;20429;-68
2021/06/06 06:58:35;;;;;;;107.87;51.67;;;;;;;15.23;100.00;101016.13;5082792;28;20218;-68
2021/06/06 07:01:01;;;;;;;99.50;49.63;;;;;;;15.34;100.00;101025.47;5083025;28;20196;-67
2021/06/06 07:03:30;;;;;;;97.93;47.93;;;;;;;15.39;100.00;101032.31;5082304;28;20292;-68
2021/06/06 07:05:57;;;;;;;95.03;47.37;;;;;;;15.43;99.97;101035.72;5082765;28;20200;-68
2021/06/06 07:08:26;;;;;;;69.67;43.50;;;;;;;15.48;99.52;101032.06;5083021;28;20884;-68
2021/06/06 07:10:53;;;;;;;73.23;41.47;;;;;;;15.40;99.04;101028.81;5082416;28;20214;-68
2021/06/06 07:13:21;;;;;;;80.53;42.30;;;;;;;15.41;98.93;101033.13;5082462;28;20226;-68
2021/06/06 07:15:48;;;;;;;71.87;42.03;;;;;;;15.44;98.74;101033.06;5082626;28;20228;-68
2021/06/06 07:18:20;;;;;;;71.77;42.20;;;;;;;15.48;98.59;101039.09;5082584;28;20202;-68
2021/06/06 07:20:49;;;;;;;70.60;40.87;;;;;;;15.56;98.29;101036.22;5082741;28;20211;-68
2021/06/06 07:23:16;;;;;;;68.93;41.87;;;;;;;15.41;97.95;101043.66;5081870;28;20230;-68
2021/06/06 07:25:44;;;;;;;59.37;38.87;;;;;;;15.44;98.11;101047.97;5082345;28;20203;-68
2021/06/06 07:28:11;;;;;;;61.53;40.93;;;;;;;15.51;97.50;101044.25;5082603;28;20204;-68
2021/06/06 07:30:46;;;;;;;57.10;38.33;;;;;;;15.45;97.41;101050.56;5082182;28;20208;-68
2021/06/06 07:33:12;;;;;;;46.47;35.93;;;;;;;15.55;96.87;101045.88;5081523;28;20654;-69
2021/06/06 07:35:38;;;;;;;41.27;34.00;;;;;;;15.67;96.66;101044.66;5081625;28;20232;-68
2021/06/06 07:38:04;;;;;;;42.77;32.93;;;;;;;15.71;95.77;101046.28;5082213;28;20204;-69
2021/06/06 07:40:35;;;;;;;37.17;32.80;;;;;;;15.73;95.48;101052.41;5082176;28;20663;-69
2021/06/06 07:43:01;;;;;;;35.30;30.47;;;;;;;15.76;95.18;101051.47;5081859;28;20216;-69
2021/06/06 07:45:28;;;;;;;32.40;29.03;;;;;;;15.82;94.83;101054.75;5081730;28;20298;-69
2021/06/06 07:47:56;;;;;;;28.73;25.93;;;;;;;15.96;94.50;101051.69;5082561;28;20204;-69
2021/06/06 07:50:25;;;;;;;30.63;27.77;;;;;;;15.93;94.36;101046.50;5081839;28;20200;-69
2021/06/06 07:52:52;;;;;;;36.97;30.23;;;;;;;15.90;94.68;101046.63;5082084;28;20203;-68
2021/06/06 07:55:21;;;;;;;35.93;29.50;;;;;;;15.93;94.69;101043.88;5082111;28;20257;-68
2021/06/06 07:57:47;;;;;;;33.50;30.17;;;;;;;15.94;94.62;101044.75;5081970;28;20208;-69
2021/06/06 08:00:16;;;;;;;34.27;30.47;;;;;;;16.02;94.38;101042.75;5082437;28;20718;-69
2021/06/06 08:02:42;;;;;;;31.60;28.13;;;;;;;15.89;94.52;101051.00;5082141;28;20204;-69
2021/06/06 08:05:11;;;;;;;30.77;27.83;;;;;;;15.97;94.48;101047.28;5084496;28;20293;-68
2021/06/06 08:07:37;;;;;;;32.43;28.43;;;;;;;16.09;94.45;101044.25;5083794;28;20208;-68
2021/06/06 08:10:04;;;;;;;28.97;26.30;;;;;;;15.99;93.54;101051.59;5083012;28;20203;-69
2021/06/06 08:12:29;;;;;;;26.20;23.70;;;;;;;16.10;93.05;101043.34;5083415;28;20216;-69
2021/06/06 08:14:55;;;;;;;27.33;25.07;;;;;;;16.04;92.93;101054.09;5082433;28;20297;-68
2021/06/06 08:17:22;;;;;;;27.33;24.90;;;;;;;15.88;93.10;101054.56;5080521;28;20207;-68
2021/06/06 08:19:48;;;;;;;28.57;25.40;;;;;;;15.91;93.40;101050.97;5081645;28;20203;-69
2021/06/06 08:22:15;;;;;;;27.40;24.97;;;;;;;15.94;92.75;101050.03;5081690;28;20204;-69
2021/06/06 08:24:42;;;;;;;28.27;25.67;;;;;;;15.96;92.89;101051.69;5079545;28;20276;-68
2021/06/06 08:27:08;;;;;;;24.33;22.27;;;;;;;16.18;92.14;101051.00;5080780;28;20200;-68
2021/06/06 08:29:34;;;;;;;23.53;21.73;;;;;;;16.28;91.03;101050.66;5081604;28;20254;-68
2021/06/06 08:32:00;;;;;;;25.70;23.57;;;;;;;16.13;91.55;101053.78;5081296;28;20215;-68
2021/06/06 08:34:27;;;;;;;25.67;23.37;;;;;;;16.17;91.68;101047.50;5079539;28;20600;-70
2021/06/06 08:36:56;;;;;;;23.97;21.87;;;;;;;16.20;91.13;101042.13;5080463;28;20270;-71
2021/06/06 08:39:26;;;;;;;25.20;22.93;;;;;;;16.23;91.37;101046.44;5081301;28;20239;-69
2021/06/06 08:41:56;;;;;;;23.03;21.03;;;;;;;16.28;90.85;101047.16;5081106;28;20219;-70
2021/06/06 08:44:25;;;;;;;22.83;21.03;;;;;;;16.17;90.74;101046.66;5084681;28;20235;-69
2021/06/06 08:47:00;;;;;;;23.90;22.10;;;;;;;16.11;91.47;101047.69;5085329;28;20206;-70
2021/06/06 08:49:28;;;;;;;24.23;22.37;;;;;;;16.16;91.86;101055.47;5084535;28;20215;-71
2021/06/06 08:52:06;;;;;;;22.93;21.03;;;;;;;16.17;91.60;101052.75;5083808;28;20210;-70
2021/06/06 08:54:38;;;;;;;22.97;21.07;;;;;;;16.42;91.49;101046.69;5083495;28;20227;-70
2021/06/06 08:57:09;;;;;;;22.47;20.40;;;;;;;16.54;90.41;101054.19;5084057;28;20200;-70
2021/06/06 08:59:43;;;;;;;22.43;20.73;;;;;;;16.60;90.38;101058.41;5085100;28;20211;-69
2021/06/06 09:02:17;;;;;;;21.80;20.00;;;;;;;16.53;90.30;101057.75;5084524;28;20395;-71
2021/06/06 09:04:43;;;;;;;22.43;20.63;;;;;;;16.62;90.08;101064.47;5084623;28;20277;-71
2021/06/06 09:07:13;;;;;;;20.93;19.43;;;;;;;16.70;89.66;101066.84;5084666;28;20810;-71
2021/06/06 09:09:45;;;;;;;21.00;19.40;;;;;;;16.77;89.52;101063.06;5084350;28;20200;-70
2021/06/06 09:12:13;;;;;;;19.33;17.93;;;;;;;16.77;88.93;101053.41;5084096;28;20219;-71
2021/06/06 09:14:41;;;;;;;20.17;18.63;;;;;;;16.67;89.43;101059.91;5084292;28;20224;-70
2021/06/06 09:17:10;;;;;;;19.63;18.13;;;;;;;16.59;89.89;101060.19;5084489;28;20208;-70
2021/06/06 09:19:42;;;;;;;19.50;18.20;;;;;;;16.50;90.14;101067.53;5084057;28;20678;-70
2021/06/06 09:22:09;;;;;;;18.30;16.97;;;;;;;16.66;90.03;101074.84;5083959;28;20261;-70
2021/06/06 09:24:39;;;;;;;16.23;15.20;;;;;;;16.71;88.26;101065.94;5084290;28;20224;-70
2021/06/06 09:27:16;;;;;;;16.47;15.30;;;;;;;16.86;87.65;101066.28;5084151;28;20212;-70
2021/06/06 09:29:43;;;;;;;16.37;15.33;;;;;;;16.93;87.79;101066.09;5084292;28;20674;-70
2021/06/06 09:32:13;;;;;;;17.20;16.10;;;;;;;17.01;87.90;101071.97;5083383;28;20212;-69
2021/06/06 09:34:52;;;;;;;17.57;16.03;;;;;;;17.00;87.37;101063.16;5083993;28;20229;-70
2021/06/06 09:37:20;;;;;;;16.23;15.13;;;;;;;16.99;87.14;101063.25;5084014;28;20238;-70
2021/06/06 09:39:56;;;;;;;15.77;14.77;;;;;;;16.98;86.82;101065.00;5084520;28;20200;-69
2021/06/06 09:42:29;;;;;;;17.03;15.80;;;;;;;17.06;87.31;101064.72;5083610;28;20210;-69
2021/06/06 09:45:09;;;;;;;15.20;14.30;;;;;;;17.22;86.28;101067.66;5083938;28;20231;-70
2021/06/06 09:47:34;;;;;;;14.80;13.80;;;;;;;17.45;86.33;101069.47;5083204;28;20218;-68
2021/06/06 09:50:16;;;;;;;15.07;14.07;;;;;;;17.50;84.90;101062.22;5084041;28;20245;-68
2021/06/06 09:52:42;;;;;;;14.70;13.63;;;;;;;17.41;84.22;101073.13;5083227;28;20211;-69
2021/06/06 09:55:21;;;;;;;15.27;14.17;;;;;;;17.36;84.49;101068.03;5081400;28;20268;-69
2021/06/06 09:57:51;;;;;;;14.73;13.83;;;;;;;17.51;85.25;101071.03;5083386;28;20204;-69
2021/06/06 10:00:31;;;;;;;16.80;15.70;;;;;;;17.13;85.92;101070.66;5083278;28;20204;-68
2021/06/06 10:03:00;;;;;;;16.20;15.00;;;;;;;17.18;86.15;101066.91;5083329;28;20215;-68
2021/06/06 10:05:30;;;;;;;15.90;14.80;;;;;;;17.31;86.30;101069.13;5083622;28;20212;-67
2021/06/06 10:07:59;;;;;;;16.00;15.00;;;;;;;17.54;85.00;101069.13;5083559;28;20218;-68
2021/06/06 10:10:28;;;;;;;16.70;15.60;;;;;;;17.68;85.00;101079.16;5084067;28;20202;-68
2021/06/06 10:12:58;;;;;;;15.13;14.13;;;;;;;17.75;84.53;101080.63;5082850;28;20209;-72
2021/06/06 10:15:38;;;;;;;16.40;15.30;;;;;;;17.65;84.66;101077.47;5083430;28;20234;-68
2021/06/06 10:18:11;;;;;;;17.50;16.40;;;;;;;17.57;84.21;101082.19;5083295;28;20237;-68
2021/06/06 10:20:39;;;;;;;17.60;16.40;;;;;;;17.59;84.29;101085.63;5083491;28;20261;-68
2021/06/06 10:23:09;;;;;;;17.17;15.97;;;;;;;17.66;84.23;101084.50;5083208;28;20216;-68
2021/06/06 10:25:43;;;;;;;17.57;16.47;;;;;;;17.64;84.33;101083.69;5082921;28;20662;-68
2021/06/06 10:28:14;;;;;;;17.57;16.37;;;;;;;17.74;84.40;101081.56;5082297;28;20693;-68
2021/06/06 10:30:45;;;;;;;16.03;15.00;;;;;;;17.56;84.27;101093.69;5081976;28;20265;-68
2021/06/06 10:33:18;;;;;;;17.37;16.03;;;;;;;17.62;83.90;101088.19;5083020;28;20209;-68
2021/06/06 10:35:44;;;;;;;16.77;15.57;;;;;;;17.59;84.51;101090.06;5083047;28;20229;-68
2021/06/06 10:38:10;;;;;;;17.07;15.77;;;;;;;17.54;84.31;101087.59;5082858;28;20204;-68
2021/06/06 10:40:41;;;;;;;17.33;16.03;;;;;;;17.47;84.08;101089.59;5083010;28;20238;-68
2021/06/06 10:43:15;;;;;;;17.10;16.00;;;;;;;17.38;84.77;101100.50;5082513;28;20204;-66
2021/06/06 10:45:46;;;;;;;17.83;16.53;;;;;;;17.33;84.99;101102.44;5082847;28;20250;-68
2021/06/06 10:48:20;;;;;;;19.17;17.87;;;;;;;17.18;85.46;101103.84;5083228;28;20220;-68
2021/06/06 10:50:49;;;;;;;20.13;18.57;;;;;;;17.29;85.88;101113.19;5082657;28;20209;-68
2021/06/06 10:53:20;;;;;;;19.17;17.73;;;;;;;17.27;85.30;101105.31;5082097;28;20219;-68
2021/06/06 10:56:03;;;;;;;17.47;16.27;;;;;;;17.21;84.92;101102.91;5082174;28;20220;-68
2021/06/06 10:58:36;;;;;;;17.27;16.17;;;;;;;17.33;84.78;101110.38;5082378;28;20631;-68
2021/06/06 11:01:07;;;;;;;18.23;17.03;;;;;;;17.30;85.89;101110.47;5082658;28;20291;-68
2021/06/06 11:03:36;;;;;;;18.03;16.83;;;;;;;17.23;85.31;101109.84;5082739;28;20257;-68
2021/06/06 11:06:07;;;;;;;18.03;16.60;;;;;;;17.23;85.17;101107.19;5081789;28;20216;-68
2021/06/06 11:08:44;;;;;;;17.13;16.03;;;;;;;17.34;85.17;101106.78;5083058;28;20237;-68
2021/06/06 11:11:21;;;;;;;18.93;17.60;;;;;;;17.30;85.79;101106.97;5082792;28;20204;-68
2021/06/06 11:13:52;;;;;;;19.53;18.03;;;;;;;17.21;86.07;101108.19;5082591;28;20235;-68